Time;durP1;ratioP1;P1;durP2;ratioP2;P2;SDS_P1;SDS_P2;PMS_P1;PMS_P2;Temp;Humidity;BMP_temperature;BMP_pressure;BME280_temperature;BME280_humidity;BME280_pressure;Samples;Min_cycle;Max_cycle;Signal;HPM_P1;HPM_P2
2023/08/26 00:01:26;;;;;;;10.30;7.90;;;20.20;99.90;;;;;;4998500;28;20218;-83
2023/08/26 00:03:52;;;;;;;14.50;7.93;;;20.20;99.90;;;;;;5005631;28;20248;-82
2023/08/26 00:06:18;;;;;;;14.47;8.20;;;20.20;99.90;;;;;;5002878;28;20204;-81
2023/08/26 00:08:43;;;;;;;12.93;7.40;;;20.20;99.90;;;;;;5004521;28;20202;-82
2023/08/26 00:11:09;;;;;;;8.20;7.40;;;20.20;99.90;;;;;;5005949;28;20869;-82
2023/08/26 00:13:34;;;;;;;9.33;7.20;;;20.10;99.90;;;;;;5003884;28;20183;-82
2023/08/26 00:16:00;;;;;;;12.53;7.97;;;20.20;99.90;;;;;;5010322;28;20186;-82
2023/08/26 00:18:25;;;;;;;8.30;7.43;;;20.20;99.90;;;;;;5007810;28;20170;-82
2023/08/26 00:20:52;;;;;;;13.40;7.20;;;20.20;99.90;;;;;;5006664;28;20214;-82
2023/08/26 00:23:17;;;;;;;10.30;6.80;;;20.10;99.90;;;;;;5010518;28;20183;-81
2023/08/26 00:25:43;;;;;;;12.13;7.20;;;20.10;99.90;;;;;;5008019;28;21425;-82
2023/08/26 00:28:08;;;;;;;8.13;7.10;;;20.10;99.90;;;;;;5010732;28;20187;-82
2023/08/26 00:30:34;;;;;;;9.80;7.73;;;20.00;99.90;;;;;;5008496;28;20221;-83
2023/08/26 00:32:59;;;;;;;10.20;6.30;;;20.00;99.90;;;;;;5002244;28;20179;-83
2023/08/26 00:35:25;;;;;;;9.40;6.40;;;19.90;99.90;;;;;;4997850;28;20707;-82
2023/08/26 00:37:51;;;;;;;7.70;6.10;;;20.00;99.90;;;;;;5006109;28;20183;-82
2023/08/26 00:40:17;;;;;;;11.30;7.40;;;19.90;99.90;;;;;;5006651;28;20235;-82
2023/08/26 00:42:43;;;;;;;8.70;4.97;;;19.90;99.90;;;;;;5005173;28;20576;-81
2023/08/26 00:45:09;;;;;;;8.23;5.27;;;20.00;99.90;;;;;;5000624;28;20500;-83
2023/08/26 00:47:37;;;;;;;6.83;5.33;;;20.00;99.90;;;;;;5002600;28;20575;-83
2023/08/26 00:50:03;;;;;;;8.07;5.47;;;20.00;99.90;;;;;;5008137;28;20198;-83
2023/08/26 00:52:30;;;;;;;7.57;5.13;;;20.00;99.90;;;;;;5009629;28;20433;-82
2023/08/26 00:54:55;;;;;;;7.70;5.73;;;20.10;99.90;;;;;;5010581;28;20437;-82
2023/08/26 00:57:21;;;;;;;13.73;5.37;;;20.10;99.90;;;;;;5011434;28;20430;-82
2023/08/26 00:59:47;;;;;;;5.87;4.83;;;20.20;99.90;;;;;;5011325;28;20183;-82
2023/08/26 01:02:12;;;;;;;7.97;5.43;;;20.20;99.90;;;;;;5011211;28;20198;-83
2023/08/26 01:04:39;;;;;;;5.80;4.33;;;20.00;99.90;;;;;;5012920;28;20198;-83
2023/08/26 01:07:05;;;;;;;7.60;4.77;;;19.90;99.90;;;;;;5015364;28;20171;-83
2023/08/26 01:09:30;;;;;;;4.33;3.53;;;19.80;99.90;;;;;;5013370;28;20559;-82
2023/08/26 01:12:16;;;;;;;4.17;3.40;;;19.70;99.90;;;;;;5010647;28;20202;-82
2023/08/26 01:14:52;;;;;;;6.57;5.00;;;19.60;99.90;;;;;;5009543;28;20186;-81
2023/08/26 01:17:18;;;;;;;11.27;5.37;;;19.60;99.90;;;;;;5012200;28;20445;-82
2023/08/26 01:19:45;;;;;;;5.53;4.87;;;19.60;99.90;;;;;;5011725;28;20445;-82
2023/08/26 01:22:12;;;;;;;6.57;4.53;;;19.50;99.90;;;;;;5011773;28;20428;-82
2023/08/26 01:24:41;;;;;;;15.83;5.70;;;19.50;99.90;;;;;;5011186;28;20551;-82
2023/08/26 01:27:07;;;;;;;10.43;4.93;;;19.50;99.90;;;;;;5008716;28;20456;-82
2023/08/26 01:29:33;;;;;;;5.30;4.47;;;19.50;99.90;;;;;;5009902;28;21000;-81
2023/08/26 01:32:11;;;;;;;6.43;4.47;;;19.50;99.90;;;;;;5008735;28;20449;-82
2023/08/26 01:34:38;;;;;;;4.87;4.43;;;19.50;99.90;;;;;;5009955;28;21190;-82
2023/08/26 01:37:07;;;;;;;8.20;5.20;;;19.50;99.90;;;;;;5007071;28;21025;-82
2023/08/26 01:39:33;;;;;;;5.80;4.70;;;19.50;99.90;;;;;;5009505;28;20506;-82
2023/08/26 01:42:01;;;;;;;5.20;4.70;;;19.40;99.90;;;;;;5011792;28;20520;-81
2023/08/26 01:44:27;;;;;;;9.47;4.33;;;19.40;99.90;;;;;;5011110;28;20469;-83
2023/08/26 01:46:54;;;;;;;8.90;5.27;;;19.40;99.90;;;;;;5010882;28;20433;-83
2023/08/26 01:49:20;;;;;;;12.93;7.13;;;19.40;99.90;;;;;;5011275;28;20168;-84
2023/08/26 01:51:45;;;;;;;8.60;6.00;;;19.40;99.90;;;;;;5018950;28;20476;-83
2023/08/26 01:54:11;;;;;;;8.00;6.00;;;19.50;99.90;;;;;;5018264;28;20189;-83
2023/08/26 01:56:36;;;;;;;8.40;6.37;;;19.60;99.90;;;;;;5016007;28;20386;-83
2023/08/26 01:59:02;;;;;;;9.43;6.17;;;19.60;99.90;;;;;;5016418;28;20186;-84
2023/08/26 02:01:28;;;;;;;8.90;7.37;;;19.60;99.90;;;;;;5011350;28;20214;-84
2023/08/26 02:03:54;;;;;;;8.80;6.70;;;19.50;99.90;;;;;;5013702;28;20494;-84
2023/08/26 02:06:19;;;;;;;8.70;5.60;;;19.50;99.90;;;;;;5015206;28;20167;-84
2023/08/26 02:08:47;;;;;;;14.67;7.53;;;19.60;99.90;;;;;;5013151;28;20795;-84
2023/08/26 02:11:13;;;;;;;8.47;6.50;;;19.50;99.90;;;;;;5017633;28;20222;-84
2023/08/26 02:13:38;;;;;;;9.83;7.47;;;19.60;99.90;;;;;;5018444;28;20426;-84
2023/08/26 02:16:04;;;;;;;7.93;6.30;;;19.60;99.90;;;;;;5008650;28;20426;-84
2023/08/26 02:18:29;;;;;;;21.93;8.37;;;19.70;99.90;;;;;;5011946;28;20543;-84
2023/08/26 02:20:55;;;;;;;7.57;5.90;;;19.70;99.90;;;;;;5016116;28;20668;-84
2023/08/26 02:23:20;;;;;;;9.87;6.43;;;19.70;99.90;;;;;;5019392;28;20181;-84
2023/08/26 02:25:46;;;;;;;9.50;7.40;;;19.70;99.90;;;;;;5017273;28;20581;-83
2023/08/26 02:28:11;;;;;;;15.20;6.80;;;19.50;99.90;;;;;;5014059;28;20186;-84
2023/08/26 02:30:37;;;;;;;11.00;7.93;;;19.50;99.90;;;;;;5020947;28;20217;-83
2023/08/26 02:33:03;;;;;;;12.80;8.40;;;19.50;99.90;;;;;;5016156;28;20183;-84
2023/08/26 02:35:29;;;;;;;10.60;7.33;;;19.50;99.90;;;;;;5011012;28;20167;-85
2023/08/26 02:37:55;;;;;;;13.63;8.13;;;19.50;99.90;;;;;;5018033;28;20182;-84
2023/08/26 02:40:20;;;;;;;12.73;7.53;;;19.50;99.90;;;;;;5014756;28;20553;-80
2023/08/26 02:42:46;;;;;;;13.60;8.43;;;19.40;99.90;;;;;;4999789;28;20187;-82
2023/08/26 02:45:12;;;;;;;10.30;6.97;;;19.40;99.90;;;;;;4995873;28;20195;-82
2023/08/26 02:47:37;;;;;;;13.37;7.80;;;19.40;99.90;;;;;;4998411;28;20178;-84
2023/08/26 02:50:03;;;;;;;10.53;8.00;;;19.40;99.90;;;;;;4998908;28;20209;-82
2023/08/26 02:52:29;;;;;;;11.47;8.07;;;19.40;99.90;;;;;;4997641;28;20226;-83
2023/08/26 02:54:54;;;;;;;15.20;8.43;;;19.50;99.90;;;;;;4998588;28;20179;-83
2023/08/26 02:57:21;;;;;;;9.87;7.83;;;19.40;99.90;;;;;;4998869;28;20254;-83
2023/08/26 02:59:46;;;;;;;10.90;7.50;;;19.30;99.90;;;;;;5001324;28;20213;-82
2023/08/26 03:02:12;;;;;;;13.87;8.20;;;19.30;99.90;;;;;;5001594;28;20962;-82
2023/08/26 03:04:41;;;;;;;13.80;9.23;;;19.30;99.90;;;;;;5003399;28;20179;-82
2023/08/26 03:07:07;;;;;;;15.63;7.77;;;19.30;99.90;;;;;;5003012;28;20186;-82
2023/08/26 03:09:32;;;;;;;14.40;8.83;;;19.30;99.90;;;;;;5004398;28;20495;-82
2023/08/26 03:11:58;;;;;;;15.50;8.33;;;19.20;99.90;;;;;;5004615;28;20235;-82
2023/08/26 03:14:24;;;;;;;12.17;7.97;;;19.20;99.90;;;;;;5007615;28;20257;-82
2023/08/26 03:16:50;;;;;;;13.70;8.10;;;19.20;99.90;;;;;;5006746;28;20445;-82
2023/08/26 03:19:15;;;;;;;9.03;6.93;;;19.20;99.90;;;;;;5004543;28;20178;-81
2023/08/26 03:21:41;;;;;;;10.97;7.87;;;19.20;99.90;;;;;;5003755;28;20458;-84
2023/08/26 03:24:07;;;;;;;10.73;7.90;;;19.20;99.90;;;;;;5003712;28;20183;-83
2023/08/26 03:26:33;;;;;;;9.00;7.13;;;19.10;99.90;;;;;;5004511;28;20188;-84
2023/08/26 03:28:58;;;;;;;12.27;6.77;;;19.10;99.90;;;;;;5003479;28;20446;-84
2023/08/26 03:31:24;;;;;;;13.27;8.30;;;19.00;99.90;;;;;;5000842;28;20265;-82
2023/08/26 03:33:49;;;;;;;11.07;7.73;;;19.00;99.90;;;;;;5002659;28;20178;-83
2023/08/26 03:36:15;;;;;;;13.73;7.60;;;19.00;99.90;;;;;;5004744;28;20175;-83
2023/08/26 03:38:40;;;;;;;14.80;8.03;;;19.00;99.90;;;;;;5001551;28;20186;-83
2023/08/26 03:41:06;;;;;;;17.20;8.37;;;18.90;99.90;;;;;;5004986;28;20340;-82
2023/08/26 03:43:32;;;;;;;10.43;7.50;;;18.90;99.90;;;;;;5002672;28;20186;-81
2023/08/26 03:45:58;;;;;;;13.30;7.40;;;18.90;99.90;;;;;;5003750;28;20241;-81
2023/08/26 03:48:24;;;;;;;9.53;8.03;;;18.90;99.90;;;;;;5003371;28;20383;-83
2023/08/26 03:50:53;;;;;;;16.83;7.67;;;18.90;99.90;;;;;;5008051;28;20476;-83
2023/08/26 03:53:19;;;;;;;10.80;7.80;;;18.90;99.90;;;;;;4999498;28;20262;-83
2023/08/26 03:55:45;;;;;;;16.77;8.20;;;18.80;99.90;;;;;;5005258;28;20457;-83
2023/08/26 03:58:11;;;;;;;14.70;8.70;;;18.80;99.90;;;;;;5006918;28;20210;-83
2023/08/26 04:00:37;;;;;;;14.93;9.17;;;18.80;99.90;;;;;;5006952;28;20485;-83
2023/08/26 04:03:06;;;;;;;12.90;8.43;;;18.80;99.90;;;;;;5003266;28;20596;-80
2023/08/26 04:05:33;;;;;;;14.73;8.40;;;18.80;99.90;;;;;;5004241;28;20433;-82
2023/08/26 04:07:59;;;;;;;18.07;8.90;;;18.70;99.90;;;;;;5003053;28;20445;-82
2023/08/26 04:10:25;;;;;;;19.80;9.20;;;18.60;99.90;;;;;;5008627;28;20508;-83
2023/08/26 04:12:51;;;;;;;15.53;8.43;;;18.60;99.90;;;;;;5002832;28;20516;-81
2023/08/26 04:15:17;;;;;;;9.17;8.10;;;18.60;99.90;;;;;;5005449;28;20187;-83
2023/08/26 04:17:42;;;;;;;18.03;9.23;;;18.50;99.90;;;;;;5011803;28;20190;-82
2023/08/26 04:20:10;;;;;;;14.20;8.30;;;18.50;99.90;;;;;;5005016;28;20206;-82
2023/08/26 04:22:36;;;;;;;12.93;8.50;;;18.50;99.90;;;;;;5002744;28;20598;-83
2023/08/26 04:25:02;;;;;;;16.13;9.30;;;18.50;99.90;;;;;;5000490;28;20446;-82
2023/08/26 04:27:28;;;;;;;13.23;9.17;;;18.40;99.90;;;;;;5000773;28;21024;-83
2023/08/26 04:29:53;;;;;;;12.40;8.60;;;18.40;99.90;;;;;;4999382;28;20723;-84
2023/08/26 04:32:19;;;;;;;10.17;8.10;;;18.40;99.90;;;;;;5002652;28;20178;-83
2023/08/26 04:34:45;;;;;;;11.37;7.50;;;18.40;99.90;;;;;;5001551;28;20220;-81
2023/08/26 04:37:12;;;;;;;11.40;7.83;;;18.40;99.90;;;;;;5003972;28;20516;-83
2023/08/26 04:39:38;;;;;;;16.83;8.30;;;18.30;99.90;;;;;;5003914;28;20438;-83
2023/08/26 04:42:04;;;;;;;13.10;8.10;;;18.30;99.90;;;;;;5005384;28;20501;-83
2023/08/26 04:44:29;;;;;;;15.77;9.40;;;18.30;99.90;;;;;;5008381;28;20425;-83
2023/08/26 04:46:55;;;;;;;13.77;8.97;;;18.20;99.90;;;;;;5003628;28;20842;-83
2023/08/26 04:49:21;;;;;;;11.90;7.57;;;18.20;99.90;;;;;;5001148;28;20194;-83
2023/08/26 04:51:51;;;;;;;23.10;8.10;;;18.20;99.90;;;;;;5005964;28;20233;-84
2023/08/26 04:54:17;;;;;;;11.50;8.60;;;18.10;99.90;;;;;;5008197;28;20175;-82
2023/08/26 04:56:43;;;;;;;18.50;7.13;;;18.10;99.90;;;;;;5009612;28;20468;-82
2023/08/26 04:59:08;;;;;;;12.67;8.50;;;18.10;99.90;;;;;;5007091;28;20596;-83
2023/08/26 05:01:34;;;;;;;10.27;7.40;;;18.20;99.90;;;;;;5002683;28;20609;-81
2023/08/26 05:03:59;;;;;;;12.80;7.00;;;18.20;99.90;;;;;;5003827;28;20178;-81
2023/08/26 05:06:25;;;;;;;12.67;8.00;;;18.30;99.90;;;;;;5001783;28;20222;-83
2023/08/26 05:08:50;;;;;;;11.60;6.93;;;18.30;99.90;;;;;;5003939;28;20174;-82
2023/08/26 05:11:16;;;;;;;13.57;7.77;;;18.30;99.90;;;;;;5003343;28;20684;-83
2023/08/26 05:13:41;;;;;;;14.10;7.97;;;18.20;99.90;;;;;;5002123;28;20175;-81
2023/08/26 05:16:07;;;;;;;12.20;9.10;;;18.20;99.90;;;;;;5001046;28;20218;-83
2023/08/26 05:18:32;;;;;;;14.47;7.23;;;18.20;99.90;;;;;;5000863;28;20234;-82
2023/08/26 05:20:59;;;;;;;11.57;6.80;;;18.20;99.90;;;;;;5003135;28;20211;-82
2023/08/26 05:23:24;;;;;;;13.83;8.00;;;18.20;99.90;;;;;;5003059;28;20186;-82
2023/08/26 05:25:50;;;;;;;11.60;7.30;;;18.40;99.90;;;;;;5003655;28;20422;-81
2023/08/26 05:28:16;;;;;;;8.73;6.57;;;18.70;99.90;;;;;;5001240;28;20182;-82
2023/08/26 05:30:42;;;;;;;10.90;6.80;;;19.10;99.90;;;;;;5002614;28;20218;-80
2023/08/26 05:33:08;;;;;;;12.07;7.27;;;19.50;99.90;;;;;;5003410;28;20608;-83
2023/08/26 05:35:33;;;;;;;10.23;6.07;;;20.00;99.90;;;;;;5000697;28;21052;-83
2023/08/26 05:37:59;;;;;;;7.83;5.43;;;20.90;99.90;;;;;;5002195;28;20206;-82
2023/08/26 05:40:29;;;;;;;9.90;6.60;;;22.00;99.90;;;;;;5000356;28;20205;-83
2023/08/26 05:42:57;;;;;;;10.67;4.83;;;23.30;99.90;;;;;;5000744;28;20258;-82
2023/08/26 05:45:24;;;;;;;5.60;4.37;;;24.40;99.90;;;;;;5003992;28;21490;-83
2023/08/26 05:47:50;;;;;;;6.00;4.20;;;25.90;99.90;;;;;;5007014;28;20433;-83
2023/08/26 05:50:15;;;;;;;11.83;4.50;;;26.60;99.90;;;;;;5003703;28;20465;-83
2023/08/26 05:52:41;;;;;;;7.70;4.53;;;27.50;99.90;;;;;;5005993;28;20454;-80
2023/08/26 05:55:08;;;;;;;9.57;4.97;;;28.30;99.90;;;;;;5006566;28;20183;-82
2023/08/26 05:57:34;;;;;;;11.17;4.83;;;28.70;99.90;;;;;;5007087;28;20219;-81
2023/08/26 05:59:59;;;;;;;9.70;4.70;;;28.80;99.90;;;;;;5000722;28;20454;-80
2023/08/26 06:02:25;;;;;;;7.53;4.40;;;29.30;99.90;;;;;;5003475;28;20196;-81
2023/08/26 06:04:50;;;;;;;10.53;4.70;;;28.60;99.90;;;;;;5003874;28;20181;-81
2023/08/26 06:07:17;;;;;;;12.67;5.23;;;27.90;99.90;;;;;;5003715;28;20548;-81
2023/08/26 06:09:42;;;;;;;11.73;5.97;;;27.30;99.90;;;;;;5003629;28;20187;-83
2023/08/26 06:12:08;;;;;;;10.03;5.43;;;25.10;99.90;;;;;;5004739;28;20513;-82
2023/08/26 06:14:34;;;;;;;11.97;5.57;;;23.60;99.90;;;;;;5008393;28;20176;-81
2023/08/26 06:16:59;;;;;;;8.57;4.90;;;23.20;99.90;;;;;;5001728;28;20248;-81
2023/08/26 06:19:25;;;;;;;8.23;6.23;;;22.80;99.90;;;;;;5000053;28;20203;-83
2023/08/26 06:21:50;;;;;;;8.70;5.73;;;22.50;99.90;;;;;;5002238;28;20212;-82
2023/08/26 06:24:16;;;;;;;13.90;6.33;;;21.90;99.90;;;;;;5005456;28;20183;-81
2023/08/26 06:26:43;;;;;;;10.60;6.73;;;21.20;99.90;;;;;;5007235;28;20241;-82
2023/08/26 06:29:08;;;;;;;12.30;5.47;;;20.70;99.90;;;;;;5002842;28;20198;-84
2023/08/26 06:31:34;;;;;;;11.60;6.70;;;20.60;99.90;;;;;;5001711;28;20527;-79
2023/08/26 06:33:59;;;;;;;17.90;7.00;;;20.30;99.90;;;;;;5005691;28;20190;-80
2023/08/26 06:36:25;;;;;;;10.90;5.33;;;20.20;99.90;;;;;;5006450;28;20171;-80
2023/08/26 06:38:50;;;;;;;10.40;6.20;;;20.30;99.90;;;;;;5006324;28;20234;-80
2023/08/26 06:41:16;;;;;;;10.63;6.60;;;20.30;99.90;;;;;;5006205;28;20238;-81
2023/08/26 06:43:41;;;;;;;11.00;6.13;;;20.30;99.90;;;;;;5006532;28;20250;-81
2023/08/26 06:46:07;;;;;;;11.03;5.80;;;20.30;99.90;;;;;;5005781;28;20182;-82
2023/08/26 06:48:32;;;;;;;10.57;5.73;;;20.20;99.90;;;;;;5009469;28;20194;-84
2023/08/26 06:50:58;;;;;;;10.63;6.03;;;20.10;99.90;;;;;;5007551;28;20727;-82
2023/08/26 06:53:23;;;;;;;10.20;5.97;;;20.00;99.90;;;;;;5010899;28;20179;-83
2023/08/26 06:55:53;;;;;;;9.67;6.30;;;19.90;99.90;;;;;;5010518;28;20167;-82
2023/08/26 06:58:20;;;;;;;11.77;6.60;;;19.80;99.90;;;;;;5013117;28;20321;-84
2023/08/26 07:00:45;;;;;;;8.67;7.10;;;19.70;99.90;;;;;;5009813;28;20481;-84
2023/08/26 07:03:11;;;;;;;11.40;6.73;;;19.50;99.90;;;;;;5007425;28;20457;-83
2023/08/26 07:05:44;;;;;;;13.03;6.57;;;19.40;99.90;;;;;;5008088;28;20648;-84
2023/08/26 07:08:10;;;;;;;8.20;6.30;;;19.60;99.90;;;;;;5015376;28;20278;-84
2023/08/26 07:10:35;;;;;;;10.80;7.03;;;19.70;99.90;;;;;;5010550;28;20507;-84
2023/08/26 07:13:01;;;;;;;13.03;8.03;;;19.40;99.90;;;;;;5013542;28;20186;-83
2023/08/26 07:15:26;;;;;;;13.27;7.23;;;19.60;99.90;;;;;;5010274;28;20174;-84
2023/08/26 07:17:54;;;;;;;9.37;6.13;;;19.90;99.90;;;;;;5012320;28;20186;-83
2023/08/26 07:20:20;;;;;;;9.53;5.33;;;20.20;99.90;;;;;;5010123;28;20287;-84
2023/08/26 07:22:46;;;;;;;10.43;5.10;;;20.40;99.90;;;;;;5014004;28;20476;-85
2023/08/26 07:25:12;;;;;;;9.87;5.43;;;20.40;99.90;;;;;;5011750;28;20181;-84
2023/08/26 07:27:38;;;;;;;8.83;4.73;;;20.90;99.90;;;;;;5011176;28;20460;-83
2023/08/26 07:30:04;;;;;;;9.60;4.53;;;21.00;99.90;;;;;;5006905;28;20472;-84
2023/08/26 07:32:30;;;;;;;7.10;3.43;;;22.10;99.90;;;;;;5016205;28;20191;-84
2023/08/26 07:34:56;;;;;;;7.17;3.70;;;23.50;99.90;;;;;;5014940;28;20438;-82
2023/08/26 07:37:21;;;;;;;6.13;4.10;;;24.20;99.90;;;;;;5008320;28;20698;-83
2023/08/26 07:39:49;;;;;;;7.00;4.00;;;25.20;99.90;;;;;;5010611;28;20886;-84
2023/08/26 07:42:15;;;;;;;4.80;3.70;;;24.40;99.90;;;;;;5012005;28;20253;-84
2023/08/26 07:44:40;;;;;;;7.43;3.40;;;24.60;99.90;;;;;;5009460;28;20486;-85
2023/08/26 07:47:06;;;;;;;7.20;3.17;;;24.40;99.90;;;;;;5013467;28;20277;-83
2023/08/26 07:49:31;;;;;;;6.40;4.17;;;24.20;99.90;;;;;;5011255;28;20184;-83
2023/08/26 07:51:57;;;;;;;5.83;3.47;;;23.90;99.90;;;;;;5011146;28;20224;-83
2023/08/26 07:54:22;;;;;;;6.47;2.83;;;24.50;99.90;;;;;;5010123;28;20191;-83
2023/08/26 07:56:48;;;;;;;4.20;3.00;;;26.20;99.90;;;;;;5013963;28;20250;-84
2023/08/26 07:59:13;;;;;;;5.07;3.53;;;27.60;99.90;;;;;;5010849;28;20175;-83
2023/08/26 08:01:39;;;;;;;6.10;3.30;;;28.90;99.90;;;;;;5013837;28;20223;-81
2023/08/26 08:04:05;;;;;;;6.77;3.30;;;28.20;99.90;;;;;;5008765;28;20197;-83
2023/08/26 08:06:30;;;;;;;7.10;3.33;;;28.20;99.90;;;;;;5008795;28;20460;-82
2023/08/26 08:08:56;;;;;;;7.70;3.80;;;27.60;99.90;;;;;;5006621;28;20436;-84
2023/08/26 08:11:21;;;;;;;7.33;4.40;;;27.00;99.90;;;;;;5012614;28;20293;-82
2023/08/26 08:13:47;;;;;;;4.53;3.10;;;28.10;99.90;;;;;;5011307;28;20181;-82
2023/08/26 08:16:13;;;;;;;9.90;3.90;;;28.70;99.90;;;;;;5008315;28;20186;-84
2023/08/26 08:18:38;;;;;;;6.63;3.40;;;29.40;99.90;;;;;;5011052;28;20227;-83
2023/08/26 08:21:04;;;;;;;5.10;2.77;;;28.60;99.90;;;;;;5009698;28;20287;-82
2023/08/26 08:23:30;;;;;;;3.90;2.83;;;28.90;99.90;;;;;;5012369;28;20255;-84
2023/08/26 08:25:55;;;;;;;7.83;3.03;;;28.40;99.90;;;;;;5011413;28;20173;-82
2023/08/26 08:28:21;;;;;;;4.27;2.70;;;27.10;99.90;;;;;;5011799;28;20217;-83
2023/08/26 08:30:46;;;;;;;4.10;2.30;;;25.80;99.90;;;;;;5011028;28;20280;-83
2023/08/26 08:33:12;;;;;;;5.57;3.30;;;25.00;99.90;;;;;;5010220;28;20210;-83
2023/08/26 08:35:38;;;;;;;5.20;3.10;;;23.90;99.90;;;;;;5011238;28;20464;-83
2023/08/26 08:38:03;;;;;;;4.93;2.80;;;23.50;99.90;;;;;;5009559;28;20219;-82
2023/08/26 08:40:29;;;;;;;9.20;4.40;;;23.40;99.90;;;;;;5011904;28;20207;-82
2023/08/26 08:42:58;;;;;;;11.43;3.10;;;23.10;99.90;;;;;;5006985;28;20216;-82
2023/08/26 08:45:25;;;;;;;5.37;2.47;;;24.50;99.90;;;;;;5002377;28;20183;-82
2023/08/26 08:47:54;;;;;;;4.93;2.67;;;26.00;99.90;;;;;;5005207;28;20455;-82
2023/08/26 08:50:21;;;;;;;3.90;2.50;;;26.30;99.90;;;;;;4999422;28;20890;-82
2023/08/26 08:52:49;;;;;;;2.87;2.33;;;28.00;99.90;;;;;;5003983;28;20446;-80
2023/08/26 08:55:15;;;;;;;4.17;2.87;;;28.00;99.90;;;;;;5001628;28;20451;-80
2023/08/26 08:57:42;;;;;;;3.70;2.60;;;28.10;99.90;;;;;;5000779;28;20463;-82
2023/08/26 09:00:08;;;;;;;4.20;2.30;;;28.50;99.90;;;;;;4997623;28;20471;-80
2023/08/26 09:02:43;;;;;;;6.93;2.90;;;27.40;99.90;;;;;;5001159;28;20451;-81
2023/08/26 09:05:09;;;;;;;4.77;2.33;;;26.70;99.90;;;;;;4997914;28;20446;-81
2023/08/26 09:07:38;;;;;;;4.93;2.63;;;25.60;99.90;;;;;;4994829;28;20857;-81
2023/08/26 09:10:05;;;;;;;10.90;2.90;;;24.00;99.90;;;;;;5000604;28;21372;-82
2023/08/26 09:12:31;;;;;;;4.03;2.07;;;24.30;99.90;;;;;;5000546;28;20482;-80
2023/08/26 09:14:57;;;;;;;3.47;2.30;;;24.80;99.90;;;;;;5001845;28;20436;-82
2023/08/26 09:17:22;;;;;;;2.80;1.93;;;25.50;99.90;;;;;;5008307;28;20183;-82
2023/08/26 09:19:55;;;;;;;3.43;2.37;;;24.70;99.90;;;;;;5003401;28;20235;-80
2023/08/26 09:22:29;;;;;;;4.17;2.10;;;26.00;99.90;;;;;;5002865;28;20176;-80
2023/08/26 09:24:59;;;;;;;5.23;2.80;;;25.10;99.90;;;;;;5002280;28;20427;-81
2023/08/26 09:27:25;;;;;;;3.47;2.50;;;24.20;99.90;;;;;;5004122;28;20468;-82
2023/08/26 09:29:51;;;;;;;3.30;2.60;;;23.60;99.90;;;;;;5003374;28;20450;-82
2023/08/26 09:32:39;;;;;;;9.50;2.67;;;23.00;99.90;;;;;;5004860;28;20184;-79
2023/08/26 09:35:10;;;;;;;4.20;2.77;;;22.40;99.90;;;;;;5005494;28;20457;-80
2023/08/26 09:37:36;;;;;;;4.07;1.97;;;22.50;99.90;;;;;;5003079;28;20435;-80
2023/08/26 09:40:03;;;;;;;4.50;2.70;;;22.50;99.90;;;;;;5001003;28;20453;-80
2023/08/26 09:42:30;;;;;;;4.90;2.10;;;22.80;99.90;;;;;;5002469;28;20430;-81
2023/08/26 09:44:56;;;;;;;5.30;2.80;;;23.00;99.90;;;;;;5005442;28;20440;-82
2023/08/26 09:47:26;;;;;;;6.93;3.20;;;23.20;99.90;;;;;;4998431;28;20448;-81
2023/08/26 09:49:52;;;;;;;9.50;2.93;;;22.50;99.90;;;;;;5003194;28;20481;-80
2023/08/26 09:52:17;;;;;;;7.73;3.07;;;22.40;99.90;;;;;;5003739;28;22025;-80
2023/08/26 09:54:45;;;;;;;3.07;2.33;;;22.30;99.90;;;;;;5000516;28;20313;-80
2023/08/26 09:57:11;;;;;;;3.80;2.27;;;22.30;99.90;;;;;;5006753;28;20242;-80
2023/08/26 09:59:37;;;;;;;4.40;1.83;;;22.40;99.90;;;;;;5005767;28;20484;-80
2023/08/26 10:02:16;;;;;;;5.13;2.30;;;22.30;99.90;;;;;;5001541;28;20759;-80
2023/08/26 10:04:44;;;;;;;6.63;2.73;;;22.00;99.90;;;;;;5003473;28;20438;-79
2023/08/26 10:07:11;;;;;;;9.63;3.10;;;22.10;99.90;;;;;;5002611;28;20441;-80
2023/08/26 10:09:46;;;;;;;4.30;2.60;;;22.50;99.90;;;;;;5001679;28;20451;-83
2023/08/26 10:12:19;;;;;;;6.23;2.50;;;22.50;99.90;;;;;;5001507;28;20565;-79
2023/08/26 10:14:50;;;;;;;6.80;2.30;;;22.60;99.90;;;;;;5001078;28;20434;-80
2023/08/26 10:17:20;;;;;;;5.73;1.70;;;22.60;99.90;;;;;;5003597;28;20431;-80
2023/08/26 10:19:46;;;;;;;4.77;2.03;;;22.90;99.90;;;;;;5014109;28;20490;-80
2023/08/26 10:22:13;;;;;;;5.30;2.17;;;23.60;99.90;;;;;;5004788;28;20541;-80
2023/08/26 10:24:39;;;;;;;7.33;2.73;;;23.90;99.90;;;;;;5001846;28;20496;-80
2023/08/26 10:27:08;;;;;;;8.40;2.57;;;24.00;99.90;;;;;;5001447;28;20446;-84
2023/08/26 10:29:36;;;;;;;5.20;2.50;;;24.40;99.90;;;;;;4996112;28;20191;-81
2023/08/26 10:32:19;;;;;;;8.80;2.73;;;24.30;99.90;;;;;;4998157;28;20864;-83
2023/08/26 10:34:55;;;;;;;6.63;2.53;;;24.70;99.90;;;;;;4996552;28;20439;-80
2023/08/26 10:37:25;;;;;;;4.37;2.50;;;25.40;99.90;;;;;;4998271;28;20459;-84
2023/08/26 10:39:51;;;;;;;6.17;2.27;;;25.50;99.90;;;;;;4998294;28;20442;-83
2023/08/26 10:42:19;;;;;;;4.77;2.30;;;25.50;99.90;;;;;;4999409;28;20434;-82
2023/08/26 10:44:56;;;;;;;2.17;1.90;;;24.70;99.90;;;;;;4995127;28;20449;-83
2023/08/26 10:47:51;;;;;;;6.07;2.50;;;24.70;99.90;;;;;;5001480;28;20469;-83
2023/08/26 10:50:18;;;;;;;3.87;2.23;;;24.70;99.90;;;;;;5002618;28;22209;-81
2023/08/26 10:52:56;;;;;;;2.90;2.27;;;24.70;99.90;;;;;;5004914;28;20525;-81
2023/08/26 10:55:25;;;;;;;3.70;2.30;;;24.50;99.90;;;;;;5001497;28;20447;-82
2023/08/26 10:58:18;;;;;;;5.90;2.50;;;23.80;99.90;;;;;;5001144;28;21161;-81
2023/08/26 11:00:52;;;;;;;5.70;2.30;;;23.50;99.90;;;;;;5004963;28;20487;-82
2023/08/26 11:03:25;;;;;;;3.60;2.63;;;23.50;99.90;;;;;;5003969;28;20452;-82
2023/08/26 11:06:01;;;;;;;4.37;2.63;;;23.70;99.90;;;;;;5006546;28;20462;-83
2023/08/26 11:08:27;;;;;;;5.43;3.40;;;23.90;99.90;;;;;;5003818;28;20696;-81
2023/08/26 11:10:53;;;;;;;6.40;3.03;;;24.40;99.90;;;;;;5006111;28;20514;-81
2023/08/26 11:13:21;;;;;;;51.77;28.77;;;24.80;99.90;;;;;;5004634;28;20214;-83
2023/08/26 11:15:49;;;;;;;9.40;4.30;;;24.60;99.90;;;;;;5008408;28;20176;-81
2023/08/26 11:18:16;;;;;;;9.97;3.63;;;24.30;99.90;;;;;;5007912;28;20437;-82
2023/08/26 11:20:45;;;;;;;3.27;2.27;;;24.00;99.90;;;;;;5005837;28;20496;-81
2023/08/26 11:23:10;;;;;;;6.60;3.00;;;23.30;99.90;;;;;;5006788;28;20829;-79
2023/08/26 11:25:39;;;;;;;5.50;2.73;;;22.60;99.90;;;;;;5005993;28;20459;-81
2023/08/26 11:28:10;;;;;;;4.67;2.67;;;22.30;99.90;;;;;;5006383;28;20201;-80
2023/08/26 11:30:51;;;;;;;4.93;2.40;;;21.90;99.90;;;;;;5003865;28;20572;-81
2023/08/26 11:33:17;;;;;;;4.70;2.70;;;21.80;99.90;;;;;;5005327;28;20417;-82
2023/08/26 11:35:45;;;;;;;3.20;2.13;;;21.50;99.90;;;;;;5005344;28;20447;-80
2023/08/26 11:38:11;;;;;;;4.57;2.63;;;21.30;99.90;;;;;;5006201;28;20512;-81
2023/08/26 11:40:37;;;;;;;5.00;2.67;;;21.30;99.90;;;;;;5003909;28;20491;-81
2023/08/26 11:43:10;;;;;;;3.50;2.03;;;21.40;99.90;;;;;;5010552;28;20441;-80
2023/08/26 11:45:42;;;;;;;9.53;3.10;;;21.40;99.90;;;;;;5002543;28;20433;-81
2023/08/26 11:48:11;;;;;;;3.10;2.13;;;21.20;99.90;;;;;;5004020;28;20429;-82
2023/08/26 11:50:37;;;;;;;6.30;2.90;;;21.30;99.90;;;;;;5007157;28;20456;-83
2023/08/26 11:53:03;;;;;;;5.20;2.40;;;21.40;99.90;;;;;;5006779;28;20532;-82
2023/08/26 11:55:32;;;;;;;7.40;2.67;;;21.40;99.90;;;;;;5008064;28;20452;-82
2023/08/26 11:58:00;;;;;;;4.63;2.40;;;21.10;99.90;;;;;;5003062;28;21842;-80
2023/08/26 12:00:26;;;;;;;2.90;2.20;;;21.00;99.90;;;;;;5003897;28;20466;-81
2023/08/26 12:02:58;;;;;;;6.53;2.93;;;21.10;99.90;;;;;;5003350;28;20456;-81
2023/08/26 12:05:24;;;;;;;5.80;2.93;;;20.90;99.90;;;;;;5001404;28;20492;-80
2023/08/26 12:07:51;;;;;;;8.40;2.57;;;20.70;99.90;;;;;;5000093;28;20477;-80
2023/08/26 12:10:18;;;;;;;4.93;2.80;;;20.40;99.90;;;;;;5004959;28;20317;-81
2023/08/26 12:12:45;;;;;;;8.70;2.80;;;20.40;99.90;;;;;;4999824;28;20434;-82
2023/08/26 12:15:15;;;;;;;8.67;2.30;;;20.30;99.90;;;;;;4995560;28;20448;-81
2023/08/26 12:17:43;;;;;;;4.40;2.27;;;20.20;99.90;;;;;;4999902;28;20425;-83
2023/08/26 12:20:40;;;;;;;2.97;2.47;;;20.10;99.90;;;;;;4999348;28;21058;-81
2023/08/26 12:23:07;;;;;;;3.00;2.37;;;19.70;99.90;;;;;;4989498;28;20467;-81
2023/08/26 12:25:38;;;;;;;5.53;2.83;;;19.60;99.90;;;;;;5000571;28;20434;-81
2023/08/26 12:28:18;;;;;;;7.83;3.20;;;19.50;99.90;;;;;;4997940;28;20418;-81
2023/08/26 12:30:47;;;;;;;6.13;2.80;;;19.40;99.90;;;;;;4997962;28;20461;-80
2023/08/26 12:33:14;;;;;;;4.63;2.50;;;19.30;99.90;;;;;;4995843;28;21043;-80
2023/08/26 12:35:40;;;;;;;3.97;2.87;;;19.20;99.90;;;;;;4994947;28;20456;-80
2023/08/26 12:38:06;;;;;;;3.50;2.40;;;19.20;99.90;;;;;;4996329;28;20434;-81
2023/08/26 12:40:33;;;;;;;2.60;2.40;;;19.00;99.90;;;;;;4998692;28;20504;-81
2023/08/26 12:42:59;;;;;;;3.30;2.43;;;18.70;99.90;;;;;;4997617;28;20433;-82